Kaprijke, Belgium
Current Conditions -  °F | °C
As of 4:25 AM on Sunday 26 Oct 2014 (Local Time) from EHFS Reporting Station
Overcast Overcast  
Wind Chill: 13°   Ceiling: 3200
Heat Index: 13°   Visibility: 6mi
Dew Point: 11°   Wind: 15mph
Humidity: 88%   Direction: 200°SSW
Pressure: 30.18"   Gusts: NA
Location:  51.22°N, 3.62°E
Report Text: EHFS 260225Z AUTO 20013KT 9999 OVC032/// 13/11 Q1022
Loading
Personal Weather Stations






























Interactive Weather Map
Tropical Storm Tracking
New forecast layout! Learn more

10-Day Weather Forecast

Advertisements
Track Severe Weather on mobile